Time;durP1;ratioP1;P1;durP2;ratioP2;P2;SDS_P1;SDS_P2;PMS_P1;PMS_P2;Temp;Humidity;BMP_temperature;BMP_pressure;BME280_temperature;BME280_humidity;BME280_pressure;Samples;Min_cycle;Max_cycle;Signal;HPM_P1;HPM_P2
2023/11/18 00:01:15;;;;;;;3.28;1.85;;;;;;;7.36;nan;100398.72;4997962;27;100909;-83
2023/11/18 00:03:41;;;;;;;3.25;2.15;;;;;;;7.39;nan;100401.28;5006663;28;96877;-83
2023/11/18 00:06:07;;;;;;;2.88;1.98;;;;;;;7.38;nan;100407.38;5005577;28;97589;-82
2023/11/18 00:08:33;;;;;;;2.30;1.80;;;;;;;7.41;nan;100422.13;5009479;28;101504;-82
2023/11/18 00:10:59;;;;;;;2.67;1.90;;;;;;;7.40;nan;100409.97;4993742;27;100914;-83
2023/11/18 00:13:26;;;;;;;2.38;1.83;;;;;;;7.44;nan;100406.41;5048270;27;96705;-82
2023/11/18 00:15:52;;;;;;;2.47;1.83;;;;;;;7.40;nan;100405.59;5012562;28;97331;-83
2023/11/18 00:18:18;;;;;;;2.95;2.22;;;;;;;7.52;nan;100417.56;5005430;28;101494;-83
2023/11/18 00:20:44;;;;;;;3.58;2.20;;;;;;;7.33;nan;100410.97;5015255;27;101403;-82
2023/11/18 00:23:10;;;;;;;2.65;1.88;;;;;;;7.53;nan;100413.19;5017919;27;97240;-82
2023/11/18 00:25:36;;;;;;;2.10;1.73;;;;;;;7.46;nan;100408.09;5020356;27;96748;-83
2023/11/18 00:28:02;;;;;;;2.95;2.30;;;;;;;7.40;nan;100394.31;5015138;27;101433;-83
2023/11/18 00:30:28;;;;;;;2.55;2.03;;;;;;;7.46;nan;100421.16;5018149;27;97326;-82
2023/11/18 00:32:53;;;;;;;3.08;1.85;;;;;;;7.47;nan;100417.63;5040168;27;97126;-83
2023/11/18 00:35:19;;;;;;;4.28;1.95;;;;;;;7.54;nan;100430.59;5012597;27;96808;-82
2023/11/18 00:37:44;;;;;;;5.07;2.00;;;;;;;7.52;nan;100432.38;4994135;27;101362;-83
2023/11/18 00:40:11;;;;;;;2.65;2.05;;;;;;;7.42;nan;100427.34;5018590;28;101664;-82
2023/11/18 00:42:37;;;;;;;2.75;2.17;;;;;;;7.35;nan;100419.63;5023677;27;97407;-82
2023/11/18 00:45:04;;;;;;;3.65;2.20;;;;;;;7.47;nan;100425.47;5030058;27;96849;-82
2023/11/18 00:47:29;;;;;;;10.00;2.22;;;;;;;7.42;nan;100422.13;5016110;28;97451;-82
2023/11/18 00:49:55;;;;;;;3.05;2.03;;;;;;;7.52;nan;100438.47;5030049;27;101205;-82
2023/11/18 00:52:20;;;;;;;4.63;1.90;;;;;;;7.50;nan;100442.84;5036463;27;96976;-82
2023/11/18 00:54:46;;;;;;;2.78;2.05;;;;;;;7.53;nan;100442.78;5016216;27;96988;-83
2023/11/18 00:57:11;;;;;;;3.85;1.98;;;;;;;7.49;nan;100444.59;5035639;27;98585;-82
2023/11/18 00:59:41;;;;;;;3.28;1.90;;;;;;;7.52;nan;100453.28;5030259;27;101104;-82
2023/11/18 01:02:08;;;;;;;3.00;2.10;;;;;;;7.40;nan;100434.34;5033320;27;97717;-82
2023/11/18 01:04:34;;;;;;;2.83;1.63;;;;;;;7.38;nan;100432.63;5019257;27;97077;-83
2023/11/18 01:06:59;;;;;;;2.85;2.10;;;;;;;7.57;nan;100462.75;5016591;27;101034;-82
2023/11/18 01:09:25;;;;;;;2.35;1.73;;;;;;;7.52;nan;100459.34;5005109;28;97973;-83
2023/11/18 01:11:50;;;;;;;4.97;2.00;;;;;;;7.28;nan;100454.59;4998546;27;96962;-82
2023/11/18 01:14:17;;;;;;;2.92;1.90;;;;;;;7.31;nan;100446.72;5006488;28;97096;-82
2023/11/18 01:16:44;;;;;;;3.22;2.30;;;;;;;7.39;nan;100465.72;4999135;28;101218;-82
2023/11/18 01:19:10;;;;;;;5.68;2.47;;;;;;;7.40;nan;100464.81;5027060;27;97301;-82
2023/11/18 01:21:36;;;;;;;3.35;2.25;;;;;;;7.30;nan;100445.84;5016962;28;97133;-82
2023/11/18 01:24:02;;;;;;;4.25;2.45;;;;;;;7.53;nan;100471.50;5015309;28;98480;-82
2023/11/18 01:26:27;;;;;;;2.88;2.20;;;;;;;7.34;nan;100459.72;5014041;27;98481;-81
2023/11/18 01:28:54;;;;;;;3.47;2.10;;;;;;;7.51;nan;100481.16;5014420;28;97516;-82
2023/11/18 01:31:20;;;;;;;2.33;2.03;;;;;;;7.40;nan;100478.72;4998605;27;96767;-82
2023/11/18 01:33:46;;;;;;;3.95;2.08;;;;;;;7.29;nan;100482.44;4988409;28;96907;-82
2023/11/18 01:36:12;;;;;;;2.88;1.98;;;;;;;7.39;nan;100490.09;4995894;28;98371;-82
2023/11/18 01:38:38;;;;;;;3.30;1.70;;;;;;;7.41;nan;100483.06;5031852;27;97878;-82
2023/11/18 01:41:05;;;;;;;2.70;2.22;;;;;;;7.40;nan;100477.88;5006426;27;98038;-82
2023/11/18 01:43:31;;;;;;;2.88;2.13;;;;;;;7.45;nan;100492.56;5033770;27;97020;-82
2023/11/18 01:46:02;;;;;;;2.65;1.90;;;;;;;7.43;nan;100493.50;4994833;28;101866;-81
2023/11/18 01:48:34;;;;;;;2.42;1.85;;;;;;;7.34;nan;100464.94;5010124;27;98524;-82
2023/11/18 01:51:00;;;;;;;;;;;;;;;7.52;nan;100505.53;5007424;27;96988;-81
2023/11/18 01:53:27;;;;;;;2.83;2.00;;;;;;;7.40;nan;100507.47;5002795;28;96902;-81
2023/11/18 01:55:52;;;;;;;3.75;2.50;;;;;;;7.25;nan;100502.53;5015069;28;98638;-81
2023/11/18 01:58:19;;;;;;;2.60;1.92;;;;;;;7.21;nan;100503.44;4994790;27;101231;-81
2023/11/18 02:00:46;;;;;;;2.08;1.83;;;;;;;7.08;nan;100500.19;4995269;28;96825;-81
2023/11/18 02:03:12;;;;;;;2.97;1.83;;;;;;;7.11;nan;100494.91;5010150;28;97496;-82
2023/11/18 02:05:38;;;;;;;4.15;2.10;;;;;;;6.98;nan;100498.59;4980396;27;100937;-82
2023/11/18 02:08:04;;;;;;;1.85;1.65;;;;;;;7.14;nan;100502.69;4996998;27;101428;-81
2023/11/18 02:10:31;;;;;;;3.55;1.75;;;;;;;7.31;nan;100525.06;5026692;27;97370;-82
2023/11/18 02:13:05;;;;;;;2.38;1.77;;;;;;;7.31;nan;100525.06;5034119;27;96905;-81
2023/11/18 02:15:33;;;;;;;1.60;1.25;;;;;;;7.24;nan;100525.16;5035081;27;101429;-82
2023/11/18 02:18:02;;;;;;;2.08;1.40;;;;;;;7.33;nan;100531.09;4997318;28;101499;-82
2023/11/18 02:20:28;;;;;;;2.72;1.30;;;;;;;7.30;nan;100537.25;5026609;27;97373;-82
2023/11/18 02:22:54;;;;;;;2.17;1.40;;;;;;;7.25;nan;100518.19;5017619;27;96857;-82
2023/11/18 02:25:21;;;;;;;1.83;1.45;;;;;;;7.23;nan;100541.69;5014640;28;101207;-82
2023/11/18 02:27:48;;;;;;;1.20;1.10;;;;;;;7.20;nan;100540.91;5016228;27;98043;-82
2023/11/18 02:30:17;;;;;;;1.42;1.27;;;;;;;7.13;nan;100547.97;5014499;28;96839;-82
2023/11/18 02:32:59;;;;;;;1.50;1.08;;;;;;;7.24;nan;100553.00;4995327;28;96989;-81
2023/11/18 02:35:28;;;;;;;1.83;1.10;;;;;;;7.17;nan;100549.63;5017672;27;101296;-82
2023/11/18 02:37:54;;;;;;;1.83;0.93;;;;;;;7.28;nan;100553.84;5014613;27;101006;-81
2023/11/18 02:40:30;;;;;;;1.30;1.15;;;;;;;7.22;nan;100554.78;5034604;27;96826;-81
2023/11/18 02:42:56;;;;;;;1.60;1.10;;;;;;;7.20;nan;100551.34;5033731;27;96760;-81
2023/11/18 02:45:21;;;;;;;1.80;0.75;;;;;;;7.28;nan;100569.50;5002441;27;100999;-81
2023/11/18 02:47:47;;;;;;;1.80;0.95;;;;;;;7.16;nan;100545.31;5014133;28;101533;-81
2023/11/18 02:50:13;;;;;;;1.42;1.02;;;;;;;7.31;nan;100567.69;5014408;27;97530;-81
2023/11/18 02:52:39;;;;;;;1.50;1.05;;;;;;;7.28;nan;100570.34;5034917;27;97284;-81
2023/11/18 02:55:07;;;;;;;1.40;1.00;;;;;;;7.22;nan;100583.53;5017021;27;101213;-81
2023/11/18 02:57:33;;;;;;;1.40;1.10;;;;;;;7.12;nan;100582.78;5014359;28;97473;-81
2023/11/18 03:00:00;;;;;;;1.85;1.40;;;;;;;7.15;nan;100587.09;5000000;27;97244;-81
2023/11/18 03:02:29;;;;;;;2.72;1.52;;;;;;;6.97;nan;100563.00;5034004;27;96960;-81
2023/11/18 03:04:55;;;;;;;2.90;1.60;;;;;;;6.97;nan;100578.66;5017371;27;100798;-81
2023/11/18 03:07:20;;;;;;;2.33;1.40;;;;;;;6.84;nan;100566.69;5033879;27;98128;-82
2023/11/18 03:09:46;;;;;;;2.72;1.80;;;;;;;7.00;nan;100593.41;5034348;27;96744;-80
2023/11/18 03:12:13;;;;;;;4.22;1.67;;;;;;;6.96;nan;100581.31;5014343;27;96897;-82
2023/11/18 03:14:38;;;;;;;2.75;1.75;;;;;;;6.90;nan;100574.44;5025845;27;98014;-82
2023/11/18 03:17:06;;;;;;;2.83;2.00;;;;;;;7.08;nan;100609.84;5011656;28;102015;-82
2023/11/18 03:19:35;;;;;;;2.60;1.42;;;;;;;7.01;nan;100596.03;4998005;27;96870;-81
2023/11/18 03:22:01;;;;;;;3.13;1.58;;;;;;;7.02;nan;100615.16;4997168;28;96847;-81
2023/11/18 03:24:28;;;;;;;2.22;1.50;;;;;;;6.83;nan;100603.25;5010313;27;101221;-81
2023/11/18 03:26:56;;;;;;;2.05;1.63;;;;;;;6.86;nan;100606.66;5003095;28;100947;-81
2023/11/18 03:29:22;;;;;;;2.03;1.42;;;;;;;6.97;nan;100625.63;5019043;27;96778;-81
2023/11/18 03:31:49;;;;;;;2.33;1.73;;;;;;;6.76;nan;100592.88;5027259;28;97365;-82
2023/11/18 03:34:16;;;;;;;2.10;1.55;;;;;;;6.99;nan;100623.03;5013399;27;101180;-81
2023/11/18 03:36:41;;;;;;;1.77;1.60;;;;;;;6.98;nan;100639.56;4996511;28;101302;-81
2023/11/18 03:39:07;;;;;;;2.80;2.10;;;;;;;6.93;nan;100638.78;5031238;27;96698;-82
2023/11/18 03:41:32;;;;;;;3.85;2.38;;;;;;;6.82;nan;100635.44;5007647;27;96851;-81
2023/11/18 03:43:58;;;;;;;2.10;1.90;;;;;;;6.74;nan;100631.19;5016303;27;101088;-81
2023/11/18 03:46:23;;;;;;;2.78;2.13;;;;;;;6.79;nan;100629.38;5013791;27;99784;-81
2023/11/18 03:48:49;;;;;;;2.40;1.83;;;;;;;6.92;nan;100630.09;5051640;27;96865;-82
2023/11/18 03:51:17;;;;;;;2.25;2.05;;;;;;;6.94;nan;100638.75;5035239;27;96939;-81
2023/11/18 03:53:42;;;;;;;3.83;2.72;;;;;;;6.97;nan;100643.06;5002872;27;101997;-82
2023/11/18 03:56:08;;;;;;;2.38;1.98;;;;;;;6.96;nan;100642.19;5055813;27;98094;-81
2023/11/18 03:58:34;;;;;;;3.53;2.40;;;;;;;6.88;nan;100610.13;5003253;27;97308;-82
2023/11/18 04:01:03;;;;;;;2.42;2.17;;;;;;;7.15;nan;100639.31;5017208;28;96820;-82
2023/11/18 04:03:28;;;;;;;4.20;2.47;;;;;;;7.06;nan;100634.22;5032475;27;101586;-81
2023/11/18 04:05:54;;;;;;;3.33;2.60;;;;;;;7.12;nan;100644.59;5017552;28;98489;-81
2023/11/18 04:08:19;;;;;;;3.72;2.85;;;;;;;7.13;nan;100652.41;5019505;27;96844;-82
2023/11/18 04:10:45;;;;;;;5.97;2.70;;;;;;;7.16;nan;100661.94;5017288;28;96999;-82
2023/11/18 04:13:10;;;;;;;3.33;2.70;;;;;;;7.24;nan;100652.22;5012545;28;101423;-82
2023/11/18 04:15:36;;;;;;;3.65;2.97;;;;;;;7.17;nan;100651.47;5017122;27;101101;-82
2023/11/18 04:18:01;;;;;;;5.65;3.22;;;;;;;7.18;nan;100654.94;5021396;27;96773;-82
2023/11/18 04:20:27;;;;;;;4.18;3.05;;;;;;;7.03;nan;100641.22;5064549;27;96801;-82
2023/11/18 04:22:52;;;;;;;4.88;3.40;;;;;;;7.15;nan;100660.19;5033748;27;101429;-82
2023/11/18 04:25:18;;;;;;;3.33;2.95;;;;;;;7.24;nan;100663.56;4998923;27;101782;-82
2023/11/18 04:27:44;;;;;;;3.22;2.72;;;;;;;7.05;nan;100656.88;5025895;27;97262;-82
2023/11/18 04:30:09;;;;;;;5.53;3.60;;;;;;;7.04;nan;100660.38;5045626;27;97292;-82
2023/11/18 04:32:35;;;;;;;3.75;3.13;;;;;;;7.06;nan;100662.94;5025678;27;100783;-81
2023/11/18 04:35:06;;;;;;;4.38;3.13;;;;;;;7.16;nan;100672.38;5059017;27;97595;-81
2023/11/18 04:37:35;;;;;;;5.43;3.80;;;;;;;6.98;nan;100674.38;5031874;27;97166;-81
2023/11/18 04:40:02;;;;;;;3.40;2.90;;;;;;;6.97;nan;100670.00;5032845;28;96790;-82
2023/11/18 04:42:29;;;;;;;5.78;3.22;;;;;;;6.92;nan;100668.34;5016782;27;100984;-82
2023/11/18 04:44:56;;;;;;;3.75;2.95;;;;;;;6.94;nan;100669.19;5018640;27;97963;-82
2023/11/18 04:47:21;;;;;;;3.67;2.97;;;;;;;6.89;nan;100671.84;5036511;27;96765;-82
2023/11/18 04:49:47;;;;;;;4.93;3.45;;;;;;;6.61;nan;100660.06;5000259;27;96974;-81
2023/11/18 04:52:12;;;;;;;5.25;3.40;;;;;;;6.72;nan;100679.03;5036380;27;97341;-81
2023/11/18 04:54:38;;;;;;;5.20;4.10;;;;;;;6.87;nan;100678.00;5016043;28;100887;-82
2023/11/18 04:57:03;;;;;;;5.57;3.88;;;;;;;6.76;nan;100679.00;5027098;28;97182;-82
2023/11/18 04:59:30;;;;;;;5.38;4.25;;;;;;;6.68;nan;100659.09;5023680;28;96845;-82
2023/11/18 05:01:56;;;;;;;6.00;4.57;;;;;;;6.88;nan;100688.41;5014759;27;100816;-81
2023/11/18 05:04:22;;;;;;;6.20;4.80;;;;;;;6.95;nan;100677.03;5035876;27;98070;-82
2023/11/18 05:06:48;;;;;;;5.65;4.63;;;;;;;7.06;nan;100684.69;5023059;27;96806;-81
2023/11/18 05:09:16;;;;;;;6.55;5.07;;;;;;;6.88;nan;100684.94;5036833;27;97192;-82
2023/11/18 05:11:42;;;;;;;7.53;5.72;;;;;;;6.98;nan;100696.97;5015637;28;101396;-83
2023/11/18 05:14:07;;;;;;;7.05;5.72;;;;;;;6.95;nan;100692.69;5018080;27;100900;-82
2023/11/18 05:16:34;;;;;;;6.88;5.63;;;;;;;6.97;nan;100695.25;5015995;28;97342;-82
2023/11/18 05:19:00;;;;;;;7.13;5.50;;;;;;;6.91;nan;100705.78;5009855;28;96846;-82
2023/11/18 05:21:25;;;;;;;8.50;6.20;;;;;;;6.68;nan;100677.38;5015291;28;99999;-81
2023/11/18 05:23:51;;;;;;;8.13;5.85;;;;;;;6.71;nan;100696.44;5035514;27;97297;-82
2023/11/18 05:26:16;;;;;;;7.90;6.32;;;;;;;6.72;nan;100706.03;5018305;27;96773;-81
2023/11/18 05:28:44;;;;;;;8.70;6.22;;;;;;;6.74;nan;100685.97;5018966;27;96916;-83
2023/11/18 05:31:10;;;;;;;9.85;6.00;;;;;;;6.85;nan;100709.34;5025260;27;98023;-82
2023/11/18 05:33:36;;;;;;;8.13;6.20;;;;;;;6.91;nan;100711.84;5034864;27;97355;-82
2023/11/18 05:36:04;;;;;;;7.45;5.32;;;;;;;6.85;nan;100701.50;5046393;27;96753;-82
2023/11/18 05:38:34;;;;;;;7.05;6.15;;;;;;;6.70;nan;100680.84;5025890;27;97465;-82
2023/11/18 05:41:01;;;;;;;7.75;5.32;;;;;;;6.74;nan;100698.16;5036216;27;97694;-82
2023/11/18 05:43:36;;;;;;;8.38;6.30;;;;;;;6.94;nan;100727.47;5035266;27;98019;-82
2023/11/18 05:46:20;;;;;;;8.95;6.15;;;;;;;6.91;nan;100724.91;5012114;28;97897;-83
2023/11/18 05:48:48;;;;;;;11.57;6.72;;;;;;;6.85;nan;100727.59;5014435;27;96788;-82
2023/11/18 05:51:13;;;;;;;8.32;6.15;;;;;;;6.75;nan;100699.91;4998372;28;102070;-82
2023/11/18 05:53:45;;;;;;;6.22;5.43;;;;;;;6.78;nan;100708.56;5012262;28;101863;-82
2023/11/18 05:56:16;;;;;;;7.43;6.18;;;;;;;6.86;nan;100744.13;5023524;27;96734;-82
2023/11/18 05:58:45;;;;;;;9.18;6.97;;;;;;;6.89;nan;100729.28;5035325;27;96737;-83
2023/11/18 06:01:14;;;;;;;8.30;6.68;;;;;;;6.80;nan;100729.41;5016486;28;101112;-83
2023/11/18 06:03:41;;;;;;;9.40;6.72;;;;;;;6.77;nan;100734.66;5005115;27;100593;-82
2023/11/18 06:06:08;;;;;;;8.60;6.47;;;;;;;6.92;nan;100760.59;5035912;27;96689;-82
2023/11/18 06:08:41;;;;;;;9.93;6.95;;;;;;;6.69;nan;100742.59;5034621;27;97430;-83
2023/11/18 06:11:12;;;;;;;9.57;7.55;;;;;;;6.71;nan;100760.81;4998953;27;101580;-82
2023/11/18 06:13:49;;;;;;;8.77;6.93;;;;;;;6.85;nan;100766.75;5033577;27;100779;-83
2023/11/18 06:16:20;;;;;;;10.57;7.35;;;;;;;6.80;nan;100766.78;5033416;27;96856;-83
2023/11/18 06:18:48;;;;;;;10.67;6.73;;;;;;;6.86;nan;100759.78;5015427;28;97090;-82
2023/11/18 06:21:18;;;;;;;9.68;7.03;;;;;;;6.99;nan;100767.44;5018148;27;101483;-83
2023/11/18 06:23:47;;;;;;;11.82;8.05;;;;;;;6.92;nan;100763.19;5007297;28;99606;-82
2023/11/18 06:26:13;;;;;;;11.45;7.97;;;;;;;6.90;nan;100766.69;5019094;27;97380;-83
2023/11/18 06:28:43;;;;;;;11.80;7.75;;;;;;;6.92;nan;100759.69;5035182;27;97242;-83
2023/11/18 06:31:09;;;;;;;10.98;7.57;;;;;;;6.97;nan;100757.91;5034564;27;98468;-83
2023/11/18 06:33:45;;;;;;;12.25;8.40;;;;;;;7.03;nan;100760.44;5013983;28;100964;-82
2023/11/18 06:36:13;;;;;;;12.48;8.70;;;;;;;7.05;nan;100774.34;5015717;27;97266;-82
2023/11/18 06:38:40;;;;;;;11.00;8.38;;;;;;;6.91;nan;100769.28;5017890;27;97427;-82
2023/11/18 06:41:08;;;;;;;12.27;8.70;;;;;;;7.00;nan;100769.16;5014928;28;101856;-83
2023/11/18 06:43:56;;;;;;;11.38;8.45;;;;;;;6.88;nan;100776.28;5016630;27;101193;-82
2023/11/18 06:46:22;;;;;;;11.48;7.57;;;;;;;7.02;nan;100785.69;5038057;27;96806;-83
2023/11/18 06:48:49;;;;;;;11.55;8.30;;;;;;;7.05;nan;100789.16;5050030;27;97367;-82
2023/11/18 06:51:15;;;;;;;12.57;9.32;;;;;;;6.92;nan;100773.63;5058125;27;97607;-83
2023/11/18 06:53:42;;;;;;;11.70;8.07;;;;;;;7.08;nan;100799.53;5011004;28;101049;-83
2023/11/18 06:56:07;;;;;;;15.30;9.45;;;;;;;7.07;nan;100797.78;5018816;27;97024;-83
2023/11/18 06:58:33;;;;;;;13.80;8.52;;;;;;;6.84;nan;100774.59;5035612;27;96782;-83
2023/11/18 07:00:59;;;;;;;13.05;8.95;;;;;;;6.94;nan;100815.38;5008993;28;100872;-83
2023/11/18 07:03:24;;;;;;;13.10;8.93;;;;;;;6.85;nan;100785.00;5016381;27;97379;-83
2023/11/18 07:05:50;;;;;;;12.25;8.40;;;;;;;6.98;nan;100815.31;5014380;28;96792;-82
2023/11/18 07:08:16;;;;;;;11.18;8.48;;;;;;;7.00;nan;100828.34;5030456;27;97568;-83
2023/11/18 07:10:41;;;;;;;14.07;9.20;;;;;;;6.94;nan;100818.81;5034407;27;97961;-83
2023/11/18 07:13:10;;;;;;;13.57;8.88;;;;;;;6.96;nan;100826.66;5033349;27;97539;-83
2023/11/18 07:15:36;;;;;;;12.48;9.10;;;;;;;6.88;nan;100800.63;5034511;27;97335;-82
2023/11/18 07:18:02;;;;;;;11.45;8.57;;;;;;;7.07;nan;100829.13;5032246;27;96882;-82
2023/11/18 07:20:27;;;;;;;12.98;8.77;;;;;;;7.03;nan;100823.09;5014016;28;100984;-82
2023/11/18 07:22:54;;;;;;;16.13;10.10;;;;;;;6.97;nan;100813.56;5014584;27;97950;-83
2023/11/18 07:25:20;;;;;;;12.88;9.60;;;;;;;7.12;nan;100829.94;5034000;27;96797;-83
2023/11/18 07:27:45;;;;;;;11.88;8.73;;;;;;;6.94;nan;100813.59;4997720;27;96948;-83
2023/11/18 07:30:11;;;;;;;12.75;8.52;;;;;;;7.01;nan;100811.78;5016145;27;102104;-83
2023/11/18 07:32:37;;;;;;;13.40;9.48;;;;;;;6.96;nan;100829.28;5051377;27;97202;-83
2023/11/18 07:35:03;;;;;;;14.10;9.52;;;;;;;6.86;nan;100815.44;5022882;27;97782;-83
2023/11/18 07:37:32;;;;;;;16.98;11.23;;;;;;;7.17;nan;100830.75;5013994;28;97267;-83
2023/11/18 07:40:00;;;;;;;13.30;9.98;;;;;;;7.13;nan;100837.78;5045522;27;97428;-83
2023/11/18 07:42:26;;;;;;;13.43;9.88;;;;;;;7.17;nan;100838.59;5010007;28;101191;-83
2023/11/18 07:44:52;;;;;;;14.75;10.40;;;;;;;7.20;nan;100833.34;5022169;27;96877;-84
2023/11/18 07:47:19;;;;;;;12.48;9.85;;;;;;;7.28;nan;100836.72;5041281;27;96764;-83
2023/11/18 07:49:45;;;;;;;12.65;9.45;;;;;;;7.33;nan;100841.88;5013846;27;97644;-82
2023/11/18 07:52:11;;;;;;;11.93;9.48;;;;;;;7.27;nan;100834.97;5012502;28;101970;-82
2023/11/18 07:54:37;;;;;;;13.82;9.50;;;;;;;7.39;nan;100850.50;5009473;27;96735;-82
2023/11/18 07:57:07;;;;;;;14.60;10.02;;;;;;;7.40;nan;100847.00;5035189;27;97067;-82
2023/11/18 07:59:33;;;;;;;16.45;11.07;;;;;;;7.31;nan;100843.66;5014849;27;101235;-81
2023/11/18 08:02:00;;;;;;;16.08;10.93;;;;;;;7.22;nan;100827.22;5017753;27;100249;-81
2023/11/18 08:04:26;;;;;;;21.50;14.35;;;;;;;7.37;nan;100844.44;5019921;27;97606;-81
2023/11/18 08:06:52;;;;;;;24.77;15.73;;;;;;;7.36;nan;100840.13;5043552;27;98481;-82
2023/11/18 08:09:22;;;;;;;28.75;17.67;;;;;;;7.44;nan;100855.66;5018553;27;100847;-81
2023/11/18 08:11:49;;;;;;;28.92;16.58;;;;;;;7.29;nan;100854.09;5007689;27;101125;-82
2023/11/18 08:14:14;;;;;;;21.17;13.02;;;;;;;7.39;nan;100858.34;5013271;27;97125;-82
2023/11/18 08:16:40;;;;;;;21.23;13.80;;;;;;;7.43;nan;100867.88;5023111;27;97101;-81
2023/11/18 08:19:08;;;;;;;20.15;12.80;;;;;;;7.43;nan;100840.88;5019106;27;98252;-81
2023/11/18 08:21:34;;;;;;;24.05;15.00;;;;;;;7.65;nan;100864.97;5002430;27;101394;-82
2023/11/18 08:24:00;;;;;;;21.23;12.77;;;;;;;7.54;nan;100861.66;4984760;27;97498;-81
2023/11/18 08:26:26;;;;;;;22.65;13.35;;;;;;;7.52;nan;100860.81;5015908;27;97159;-82
2023/11/18 08:28:51;;;;;;;25.92;14.07;;;;;;;7.28;nan;100838.47;5032497;27;98134;-82
2023/11/18 08:31:17;;;;;;;16.95;10.82;;;;;;;7.45;nan;100839.13;5019557;27;101069;-82
2023/11/18 08:33:43;;;;;;;16.50;10.63;;;;;;;7.66;nan;100859.72;5003989;27;97006;-82
2023/11/18 08:36:09;;;;;;;22.00;12.23;;;;;;;7.71;nan;100863.16;5022224;27;97863;-83
2023/11/18 08:38:35;;;;;;;21.83;12.30;;;;;;;7.95;nan;100861.06;5009837;27;97635;-82
2023/11/18 08:41:01;;;;;;;16.35;10.35;;;;;;;8.09;nan;100866.97;5031190;27;97564;-82
2023/11/18 08:43:28;;;;;;;19.63;12.02;;;;;;;8.06;nan;100871.38;5017534;27;97219;-82
2023/11/18 08:45:54;;;;;;;19.67;11.50;;;;;;;8.06;nan;100874.88;5014523;27;97258;-82
2023/11/18 08:48:22;;;;;;;19.30;11.52;;;;;;;8.19;nan;100885.13;5013267;27;99767;-82
2023/11/18 08:50:48;;;;;;;23.73;12.20;;;;;;;8.19;nan;100867.69;5027841;27;97444;-82
2023/11/18 08:53:17;;;;;;;19.48;11.45;;;;;;;8.24;nan;100872.84;5012376;27;97357;-82
2023/11/18 08:55:56;;;;;;;21.25;14.65;;;;;;;8.24;nan;100889.41;5019746;27;96954;-82
2023/11/18 08:58:22;;;;;;;16.52;10.52;;;;;;;8.10;nan;100904.44;5028959;27;98220;-77
2023/11/18 09:00:48;;;;;;;17.13;11.48;;;;;;;7.96;nan;100912.47;4996035;27;100559;-80
2023/11/18 09:03:24;;;;;;;16.48;10.55;;;;;;;7.86;nan;100893.44;5018723;27;97380;-77
2023/11/18 09:05:57;;;;;;;19.55;11.35;;;;;;;7.96;nan;100920.31;5005180;28;96901;-76
2023/11/18 09:08:24;;;;;;;23.48;12.88;;;;;;;7.90;nan;100905.56;5025323;27;98769;-79
2023/11/18 09:10:53;;;;;;;16.95;10.65;;;;;;;7.89;nan;100923.91;5015936;28;97829;-78
2023/11/18 09:13:34;;;;;;;15.18;10.82;;;;;;;7.88;nan;100927.38;5019457;27;98308;-78
2023/11/18 09:16:08;;;;;;;16.05;11.18;;;;;;;7.80;nan;100930.13;5014567;27;96837;-78
2023/11/18 09:18:34;;;;;;;18.00;10.85;;;;;;;7.80;nan;100931.88;5029788;27;97982;-85
2023/11/18 09:21:05;;;;;;;22.08;12.80;;;;;;;7.74;nan;100927.59;5042476;27;97993;-84
2023/11/18 09:23:31;;;;;;;21.08;12.38;;;;;;;7.85;nan;100937.88;5035721;27;97347;-75
2023/11/18 09:25:58;;;;;;;21.80;12.05;;;;;;;7.70;nan;100902.38;5025232;27;97401;-75
2023/11/18 09:28:24;;;;;;;20.05;11.23;;;;;;;7.76;nan;100936.25;5019916;27;97544;-75
2023/11/18 09:30:53;;;;;;;16.77;11.30;;;;;;;7.83;nan;100932.69;5040407;27;97365;-75
2023/11/18 09:33:34;;;;;;;20.88;11.60;;;;;;;7.83;nan;100934.44;5012322;27;97701;-84
2023/11/18 09:36:07;;;;;;;20.83;11.70;;;;;;;7.58;nan;100913.84;5039437;27;96829;-76
2023/11/18 09:38:40;;;;;;;16.27;10.05;;;;;;;7.69;nan;100925.03;5023270;27;99969;-78
2023/11/18 09:41:12;;;;;;;16.50;10.52;;;;;;;7.87;nan;100944.81;5018539;27;101467;-76
2023/11/18 09:43:47;;;;;;;14.98;9.75;;;;;;;7.78;nan;100944.94;5023320;27;97198;-79
2023/11/18 09:46:13;;;;;;;16.98;9.90;;;;;;;7.80;nan;100921.41;5032477;27;96753;-76
2023/11/18 09:48:52;;;;;;;16.95;9.73;;;;;;;7.90;nan;100946.53;5035937;27;101349;-76
2023/11/18 09:51:22;;;;;;;15.65;9.30;;;;;;;7.86;nan;100950.09;5012879;27;97935;-76
2023/11/18 09:53:53;;;;;;;14.70;9.20;;;;;;;7.69;nan;100927.63;5046318;27;96790;-76
2023/11/18 09:56:55;;;;;;;12.93;8.90;;;;;;;7.71;nan;100952.00;5047164;27;97244;-76
2023/11/18 09:59:35;;;;;;;14.45;9.20;;;;;;;7.45;nan;100917.50;5023125;27;101564;-76
2023/11/18 10:02:06;;;;;;;13.40;8.57;;;;;;;7.69;nan;100964.22;5002749;27;97980;-76
2023/11/18 10:04:32;;;;;;;14.00;8.38;;;;;;;7.79;nan;100962.34;5012484;27;96918;-78
2023/11/18 10:06:58;;;;;;;13.48;8.65;;;;;;;7.83;nan;100961.44;5056677;27;96877;-78
2023/11/18 10:09:39;;;;;;;12.70;7.80;;;;;;;7.82;nan;100961.44;5037629;27;97628;-76
2023/11/18 10:12:07;;;;;;;12.07;8.70;;;;;;;7.55;nan;100926.09;5035658;27;98609;-76
2023/11/18 10:14:34;;;;;;;13.63;8.85;;;;;;;7.81;nan;100968.44;5028663;27;96795;-79
2023/11/18 10:17:06;;;;;;;11.57;8.68;;;;;;;7.71;nan;100953.75;5048175;27;97196;-76
2023/11/18 10:19:58;;;;;;;13.73;9.32;;;;;;;7.91;nan;100962.22;5038521;27;97831;-76
2023/11/18 10:22:26;;;;;;;14.13;9.35;;;;;;;7.83;nan;100971.03;5021927;27;97734;-76
2023/11/18 10:24:54;;;;;;;14.82;9.55;;;;;;;7.78;nan;100973.69;5027696;27;96785;-77
2023/11/18 10:27:29;;;;;;;13.27;9.05;;;;;;;7.69;nan;100952.91;5049947;27;96784;-76
2023/11/18 10:29:56;;;;;;;12.82;8.40;;;;;;;7.66;nan;100973.84;5021094;27;98152;-76
2023/11/18 10:32:26;;;;;;;12.50;8.57;;;;;;;7.67;nan;100958.13;5026717;27;97956;-79
2023/11/18 10:34:56;;;;;;;12.73;6.95;;;;;;;7.75;nan;100973.75;5032039;27;97135;-76
2023/11/18 10:37:22;;;;;;;10.70;8.15;;;;;;;7.71;nan;100972.91;5021563;27;97909;-76
2023/11/18 10:39:51;;;;;;;11.15;7.95;;;;;;;7.60;nan;100969.56;5026798;27;98138;-76
2023/11/18 10:42:20;;;;;;;9.70;7.35;;;;;;;7.72;nan;100979.88;5031363;27;97455;-78
2023/11/18 10:44:58;;;;;;;9.15;6.30;;;;;;;7.68;nan;100988.63;5013313;27;98127;-77
2023/11/18 10:47:28;;;;;;;9.23;6.65;;;;;;;7.70;nan;100968.56;5020549;27;97028;-79
2023/11/18 10:49:57;;;;;;;11.55;7.13;;;;;;;7.79;nan;100991.09;5045487;27;97431;-77
2023/11/18 10:52:23;;;;;;;8.23;5.75;;;;;;;7.81;nan;100971.03;5045723;27;97979;-78
2023/11/18 10:54:54;;;;;;;8.77;6.10;;;;;;;7.66;nan;100968.63;5006105;28;97420;-80
2023/11/18 10:57:20;;;;;;;7.47;5.43;;;;;;;7.96;nan;100992.66;5026098;27;96781;-84
2023/11/18 11:00:13;;;;;;;7.55;5.38;;;;;;;8.01;nan;100985.63;5017576;27;97540;-76
2023/11/18 11:02:41;;;;;;;10.10;6.68;;;;;;;8.01;nan;100968.19;5013759;27;97471;-75
2023/11/18 11:05:07;;;;;;;10.30;5.97;;;;;;;8.15;nan;100991.53;5015321;27;96758;-75
2023/11/18 11:07:33;;;;;;;7.50;5.22;;;;;;;8.08;nan;101000.34;5032738;27;97343;-80
2023/11/18 11:10:04;;;;;;;7.25;5.50;;;;;;;8.10;nan;101001.19;5018503;27;100910;-78
2023/11/18 11:12:38;;;;;;;6.22;4.88;;;;;;;8.06;nan;100994.28;5013631;27;101080;-81
2023/11/18 11:15:21;;;;;;;7.38;5.78;;;;;;;7.98;nan;100965.63;5045640;27;97110;-78
2023/11/18 11:17:54;;;;;;;7.72;5.82;;;;;;;8.25;nan;100982.66;5014564;27;96825;-82
2023/11/18 11:20:29;;;;;;;6.75;5.00;;;;;;;8.28;nan;101005.31;5016112;27;98161;-78
2023/11/18 11:23:10;;;;;;;7.50;5.28;;;;;;;8.27;nan;101000.97;5024926;27;98087;-75
2023/11/18 11:26:13;;;;;;;6.63;5.23;;;;;;;8.19;nan;100966.22;5011183;27;96872;-76
2023/11/18 11:29:03;;;;;;;7.85;5.88;;;;;;;8.52;nan;100998.88;4991404;28;96973;-75
2023/11/18 11:31:38;;;;;;;8.35;5.75;;;;;;;8.47;nan;101000.72;5036247;27;97373;-76
2023/11/18 11:34:07;;;;;;;8.88;6.10;;;;;;;8.50;nan;100998.06;5015587;27;98067;-75
2023/11/18 11:36:43;;;;;;;7.93;6.47;;;;;;;8.33;nan;100982.56;5043706;27;98114;-78
2023/11/18 11:39:15;;;;;;;9.02;6.50;;;;;;;8.33;nan;101001.75;5029482;27;97337;-80
2023/11/18 11:41:47;;;;;;;;;;;;;;;8.52;nan;100997.16;5040397;27;97500;-76
2023/11/18 11:44:13;;;;;;;9.18;6.07;;;;;;;8.60;nan;100997.88;5032801;27;97513;-75
2023/11/18 11:46:41;;;;;;;11.48;6.38;;;;;;;8.45;nan;101015.56;5039668;27;97311;-75
2023/11/18 11:49:17;;;;;;;8.27;6.07;;;;;;;8.38;nan;100988.63;5006331;27;96831;-75